Time;durP1;ratioP1;P1;durP2;ratioP2;P2;SDS_P1;SDS_P2;PMS_P1;PMS_P2;Temp;Humidity;BMP_temperature;BMP_pressure;BME280_temperature;BME280_humidity;BME280_pressure;Samples;Min_cycle;Max_cycle;Signal;HPM_P1;HPM_P2
2022/01/30 00:03:21;;;;;;;26.23;3.92;;;;;;;8.94;84.98;101613.00;8325902;28;20049;-66
2022/01/30 00:07:22;;;;;;;26.48;4.85;;;;;;;8.98;85.26;101617.22;8325226;28;20052;-66
2022/01/30 00:11:27;;;;;;;29.30;5.63;;;;;;;9.04;85.33;101631.16;8333403;28;20568;-66
2022/01/30 00:15:48;;;;;;;35.47;4.60;;;;;;;9.22;84.46;101642.53;8333999;28;20046;-65
2022/01/30 00:19:56;;;;;;;31.95;4.15;;;;;;;9.25;84.33;101636.94;8343957;28;20471;-66
2022/01/30 00:24:05;;;;;;;27.83;4.50;;;;;;;9.20;84.28;101636.38;8326024;28;20026;-66
2022/01/30 00:28:07;;;;;;;26.23;4.57;;;;;;;9.11;84.41;101642.38;8325108;28;20477;-66
2022/01/30 00:32:08;;;;;;;35.17;5.10;;;;;;;8.94;84.90;101634.59;8340740;28;20044;-66
2022/01/30 00:36:08;;;;;;;25.73;4.45;;;;;;;8.88;84.98;101643.09;8326947;28;20044;-65
2022/01/30 00:40:09;;;;;;;31.25;5.82;;;;;;;8.77;85.28;101648.31;8359111;28;20037;-66
2022/01/30 00:44:09;;;;;;;29.75;4.88;;;;;;;8.67;85.62;101652.59;8357322;28;20033;-66
2022/01/30 00:48:10;;;;;;;29.73;5.30;;;;;;;8.64;85.73;101660.88;8343432;28;20045;-66
2022/01/30 00:52:10;;;;;;;31.02;4.63;;;;;;;8.54;86.15;101662.44;8358439;28;20123;-66
2022/01/30 00:56:11;;;;;;;32.22;4.95;;;;;;;8.48;86.47;101662.84;8347702;28;20045;-66
2022/01/30 01:00:13;;;;;;;28.83;4.30;;;;;;;8.35;86.65;101668.16;8332580;28;20098;-66
2022/01/30 01:04:13;;;;;;;32.20;5.03;;;;;;;8.28;87.23;101674.03;8336350;28;20502;-66
2022/01/30 01:08:26;;;;;;;30.55;5.35;;;;;;;8.17;87.91;101687.28;8345921;28;20469;-66
2022/01/30 01:25:28;;;;;;;26.60;4.32;;;;;;;8.01;88.71;101674.78;8336424;28;20046;-66
2022/01/30 01:29:28;;;;;;;32.03;5.47;;;;;;;7.90;89.01;101681.81;8347277;28;20144;-66
2022/01/30 01:33:53;;;;;;;27.20;4.55;;;;;;;7.81;89.78;101683.22;8347513;28;20040;-66
2022/01/30 01:37:53;;;;;;;35.38;5.20;;;;;;;7.82;90.26;101690.38;8338724;28;20083;-66
2022/01/30 01:41:55;;;;;;;21.20;4.38;;;;;;;7.76;89.88;101685.34;8337854;28;20498;-66
2022/01/30 01:45:58;;;;;;;29.58;5.68;;;;;;;7.75;90.03;101699.75;8342605;28;20037;-66
2022/01/30 01:49:58;;;;;;;29.88;4.85;;;;;;;7.65;90.33;101690.50;8359352;28;20047;-66
2022/01/30 01:54:00;;;;;;;37.88;4.72;;;;;;;7.61;91.10;101688.97;8359241;28;20041;-66
2022/01/30 01:58:00;;;;;;;27.63;4.65;;;;;;;7.58;90.41;101689.16;8313848;28;20033;-66
2022/01/30 02:02:02;;;;;;;31.48;5.05;;;;;;;7.51;91.09;101685.09;8314033;28;20068;-66
2022/01/30 02:06:04;;;;;;;30.98;4.75;;;;;;;7.45;91.07;101685.50;8313003;28;20037;-66
2022/01/30 02:10:11;;;;;;;23.00;4.10;;;;;;;7.39;91.66;101688.56;8313444;28;20091;-66
2022/01/30 02:14:24;;;;;;;25.23;4.50;;;;;;;7.35;91.86;101683.44;8337037;28;20055;-66
2022/01/30 02:24:06;;;;;;;32.10;5.05;;;;;;;7.35;91.06;101676.22;8346129;28;20549;-66
2022/01/30 02:27:06;;;;;;;36.38;4.45;;;;;;;7.29;91.36;101673.88;8357816;28;20037;-66
2022/01/30 02:31:14;;;;;;;35.05;4.68;;;;;;;7.32;90.41;101689.00;8360634;28;20040;-66
2022/01/30 02:35:14;;;;;;;37.72;5.15;;;;;;;7.25;90.70;101684.94;8341279;28;20512;-66
2022/01/30 02:39:16;;;;;;;32.40;4.45;;;;;;;7.33;90.03;101688.91;8344345;28;20037;-66
2022/01/30 02:43:20;;;;;;;39.10;4.97;;;;;;;7.25;90.37;101699.25;8331389;28;20034;-66
2022/01/30 02:47:25;;;;;;;;;;;;;;;7.16;90.91;101705.16;8352125;28;20037;-66
2022/01/30 02:51:34;;;;;;;28.92;4.15;;;;;;;7.04;91.38;101708.56;8337354;28;20369;-66
2022/01/30 02:55:34;;;;;;;39.88;4.80;;;;;;;6.97;92.07;101731.41;8328065;28;20044;-66
2022/01/30 02:59:35;;;;;;;34.75;5.10;;;;;;;6.90;92.16;101724.66;8308575;28;20072;-66
2022/01/30 03:03:35;;;;;;;29.08;4.93;;;;;;;6.94;91.74;101730.69;8309883;28;20398;-66
2022/01/30 03:07:36;;;;;;;27.13;4.40;;;;;;;6.95;91.74;101738.69;8310892;28;20069;-66
2022/01/30 03:11:37;;;;;;;28.30;4.60;;;;;;;6.92;91.89;101740.69;8313821;28;20511;-66
2022/01/30 03:15:38;;;;;;;33.53;5.10;;;;;;;6.89;91.70;101733.66;8355782;28;20039;-66
2022/01/30 03:19:38;;;;;;;27.45;4.32;;;;;;;7.07;90.30;101737.97;8330266;28;20049;-66
2022/01/30 03:23:39;;;;;;;32.05;4.35;;;;;;;7.12;89.70;101735.91;8357578;28;20404;-66
2022/01/30 03:27:41;;;;;;;24.88;4.95;;;;;;;7.18;89.21;101740.03;8321455;28;20517;-66
2022/01/30 03:31:42;;;;;;;22.33;3.95;;;;;;;7.02;89.58;101729.28;8313552;28;20053;-66
2022/01/30 03:35:42;;;;;;;36.72;4.50;;;;;;;7.04;89.54;101737.28;8317153;28;20025;-66
2022/01/30 03:39:42;;;;;;;35.85;3.90;;;;;;;6.99;89.20;101724.13;8320935;28;20026;-66
2022/01/30 03:43:43;;;;;;;42.60;6.95;;;;;;;7.07;88.39;101735.28;8303513;28;20486;-66
2022/01/30 03:47:43;;;;;;;30.35;4.03;;;;;;;7.09;87.94;101736.06;8319685;28;20494;-66
2022/01/30 03:51:44;;;;;;;36.33;5.13;;;;;;;7.03;88.03;101741.81;8311787;28;20040;-66
2022/01/30 03:55:44;;;;;;;26.70;4.03;;;;;;;6.98;89.01;101738.50;8307757;28;20037;-66
2022/01/30 03:59:44;;;;;;;41.00;5.15;;;;;;;6.87;89.19;101746.34;8309465;28;20457;-66
2022/01/30 04:03:45;;;;;;;26.17;4.40;;;;;;;6.82;89.97;101759.16;8341445;28;20036;-66
2022/01/30 04:07:46;;;;;;;24.90;4.38;;;;;;;6.88;89.82;101772.25;8374264;28;20132;-66
2022/01/30 04:11:47;;;;;;;33.80;3.95;;;;;;;6.82;89.65;101769.91;8369079;28;20104;-66
2022/01/30 04:15:47;;;;;;;28.35;4.22;;;;;;;6.89;89.79;101770.44;8355484;28;20048;-66
2022/01/30 04:19:48;;;;;;;28.00;4.20;;;;;;;6.99;89.66;101775.19;8365477;28;20547;-66
2022/01/30 04:23:49;;;;;;;32.22;4.00;;;;;;;7.04;89.21;101765.03;8324138;28;20124;-66
2022/01/30 04:27:49;;;;;;;40.15;4.28;;;;;;;6.92;89.30;101754.97;8307955;28;20433;-66
2022/01/30 04:31:50;;;;;;;35.35;5.05;;;;;;;6.91;89.24;101769.38;8307111;28;20061;-66
2022/01/30 04:35:51;;;;;;;28.40;4.32;;;;;;;6.80;89.48;101766.41;8340467;28;20418;-66
2022/01/30 04:40:16;;;;;;;28.75;4.55;;;;;;;6.75;90.17;101771.22;8330418;28;20050;-66
2022/01/30 04:54:39;;;;;;;30.58;4.45;;;;;;;6.80;89.96;101787.06;8346990;28;20043;-66
2022/01/30 04:58:46;;;;;;;24.95;3.95;;;;;;;6.79;90.50;101790.69;8347010;28;20052;-66
2022/01/30 05:01:52;;;;;;;28.70;4.32;;;;;;;6.95;89.88;101803.19;8347409;28;20064;-66
2022/01/30 05:06:00;;;;;;;34.80;5.18;;;;;;;7.06;90.05;101806.16;8313667;28;20060;-66
2022/01/30 05:10:01;;;;;;;26.88;4.30;;;;;;;7.09;89.96;101805.97;8320074;28;20030;-66
2022/01/30 05:14:03;;;;;;;33.60;4.65;;;;;;;7.19;89.28;101804.50;8316713;28;20065;-66
2022/01/30 05:18:03;;;;;;;31.70;4.32;;;;;;;7.22;88.83;101807.00;8346612;28;20446;-66
2022/01/30 05:22:06;;;;;;;26.73;3.53;;;;;;;7.27;88.34;101814.81;8311655;28;20038;-66
2022/01/30 05:26:08;;;;;;;34.33;4.50;;;;;;;7.29;88.61;101819.16;8295683;28;20521;-66
2022/01/30 05:30:08;;;;;;;33.40;4.60;;;;;;;7.30;88.22;101818.22;8279329;28;20498;-66
2022/01/30 05:34:11;;;;;;;26.17;4.45;;;;;;;7.21;88.11;101826.81;8307380;28;20410;-66
2022/01/30 05:38:12;;;;;;;31.35;3.83;;;;;;;7.09;88.48;101830.19;8321996;28;20084;-66
2022/01/30 05:42:12;;;;;;;26.15;3.38;;;;;;;6.87;89.67;101837.72;8355735;28;20497;-66
2022/01/30 05:46:18;;;;;;;27.42;3.67;;;;;;;6.84;89.13;101832.50;8377751;28;20509;-66
2022/01/30 05:50:19;;;;;;;27.63;4.30;;;;;;;6.70;89.68;101828.81;8365156;28;20508;-66
2022/01/30 05:54:20;;;;;;;16.38;3.17;;;;;;;6.68;89.76;101826.22;8344925;28;20037;-66
2022/01/30 05:58:20;;;;;;;32.47;4.35;;;;;;;6.62;89.54;101833.78;8358066;28;20038;-65
2022/01/30 06:02:20;;;;;;;31.33;4.28;;;;;;;6.56;89.16;101837.63;8333885;28;20078;-65
2022/01/30 06:06:21;;;;;;;23.88;3.67;;;;;;;6.47;89.80;101848.91;8342697;28;20046;-65
2022/01/30 06:10:24;;;;;;;27.67;4.38;;;;;;;6.51;88.82;101845.09;8315638;28;20088;-65
2022/01/30 06:14:24;;;;;;;29.13;3.70;;;;;;;6.50;88.66;101848.75;8372690;28;20460;-65
2022/01/30 06:18:25;;;;;;;21.75;3.65;;;;;;;6.60;87.37;101844.59;8348258;28;20042;-65
2022/01/30 06:22:26;;;;;;;17.40;2.80;;;;;;;6.60;87.54;101849.09;8348082;28;20041;-65
2022/01/30 06:26:26;;;;;;;32.88;4.47;;;;;;;6.57;87.67;101855.50;8346433;28;20041;-65
2022/01/30 06:30:27;;;;;;;22.95;3.15;;;;;;;6.55;87.91;101854.72;8347663;28;20041;-65
2022/01/30 06:34:28;;;;;;;21.15;3.30;;;;;;;6.44;88.42;101870.56;8326943;28;20095;-66
2022/01/30 06:38:29;;;;;;;37.25;3.58;;;;;;;6.47;88.48;101875.78;8329298;28;20045;-66
2022/01/30 06:42:30;;;;;;;28.88;3.92;;;;;;;6.24;90.74;101878.78;8362661;28;20064;-66
2022/01/30 06:46:30;;;;;;;27.13;4.45;;;;;;;6.11;92.20;101891.13;8377021;28;20045;-66
2022/01/30 06:50:31;;;;;;;25.15;4.18;;;;;;;5.98;93.06;101881.97;8358175;28;20496;-66
2022/01/30 06:54:31;;;;;;;33.28;3.53;;;;;;;6.09;93.06;101895.69;8358132;28;20037;-66
2022/01/30 06:58:32;;;;;;;28.52;4.13;;;;;;;6.09;92.89;101890.31;8322696;28;20360;-64
2022/01/30 07:02:32;;;;;;;32.60;4.10;;;;;;;6.07;92.63;101912.81;8320459;28;20025;-64
2022/01/30 07:06:32;;;;;;;21.45;3.33;;;;;;;6.00;93.00;101910.44;8342569;28;20148;-64
2022/01/30 07:10:33;;;;;;;26.17;3.92;;;;;;;6.00;92.68;101912.25;8341162;28;20048;-64
2022/01/30 07:14:33;;;;;;;23.92;3.20;;;;;;;5.99;92.63;101911.41;8369272;28;20041;-64
2022/01/30 07:18:34;;;;;;;24.50;3.67;;;;;;;6.04;92.45;101914.72;8375104;28;20116;-65
2022/01/30 07:22:35;;;;;;;25.48;3.17;;;;;;;5.98;92.06;101914.16;8343714;28;20079;-64
2022/01/30 07:26:35;;;;;;;24.27;4.93;;;;;;;5.94;92.26;101915.25;8344614;28;20405;-65
2022/01/30 07:30:36;;;;;;;22.30;3.40;;;;;;;5.92;92.59;101919.84;8346744;28;20033;-65
2022/01/30 07:34:37;;;;;;;27.00;4.18;;;;;;;5.89;92.89;101925.38;8324705;28;20034;-65
2022/01/30 07:38:37;;;;;;;21.10;3.03;;;;;;;5.79;93.54;101935.63;8314079;28;20052;-65
2022/01/30 07:42:38;;;;;;;27.20;3.30;;;;;;;5.80;93.45;101934.69;8315513;28;20053;-65
2022/01/30 07:46:39;;;;;;;21.83;3.50;;;;;;;5.90;93.00;101932.47;8341285;28;20165;-66
2022/01/30 07:50:39;;;;;;;24.85;4.32;;;;;;;6.04;91.53;101940.72;8330014;28;20494;-66
2022/01/30 07:54:39;;;;;;;27.30;3.97;;;;;;;6.21;90.47;101946.06;8333576;28;20140;-66
2022/01/30 07:58:40;;;;;;;20.23;3.33;;;;;;;6.35;90.13;101951.63;8325336;28;20137;-66
2022/01/30 08:02:40;;;;;;;27.95;3.13;;;;;;;6.41;89.30;101956.69;8341048;28;20091;-66
2022/01/30 08:06:40;;;;;;;22.50;3.13;;;;;;;6.41;89.08;101963.84;8347008;28;20045;-66
2022/01/30 08:10:41;;;;;;;22.55;2.67;;;;;;;6.58;88.53;101972.78;8357997;28;20139;-66
2022/01/30 08:14:41;;;;;;;21.27;3.78;;;;;;;6.89;87.18;101972.03;8335882;28;20033;-66
2022/01/30 08:18:42;;;;;;;23.15;3.22;;;;;;;6.94;86.65;101973.53;8334547;28;20054;-66
2022/01/30 08:22:50;;;;;;;17.60;2.55;;;;;;;6.97;86.44;101977.88;8305161;28;20118;-66
2022/01/30 08:26:51;;;;;;;23.90;2.90;;;;;;;6.99;86.63;101971.47;8348431;28;20044;-66
2022/01/30 08:30:52;;;;;;;25.98;3.22;;;;;;;6.96;86.63;101977.00;8352673;28;20439;-66
2022/01/30 08:34:52;;;;;;;16.42;2.75;;;;;;;7.08;85.97;101980.84;8353254;28;20037;-66
2022/01/30 08:38:52;;;;;;;21.40;3.30;;;;;;;7.20;84.93;101975.66;8354718;28;20067;-66
2022/01/30 08:42:53;;;;;;;27.92;3.38;;;;;;;7.28;84.99;101984.19;8352394;28;20033;-66
2022/01/30 08:46:53;;;;;;;19.60;3.17;;;;;;;7.38;83.64;101988.09;8349121;28;20496;-66
2022/01/30 08:50:54;;;;;;;23.05;2.95;;;;;;;7.49;83.47;101982.13;8347398;28;20044;-66
2022/01/30 08:54:55;;;;;;;28.67;4.18;;;;;;;7.52;83.75;101996.28;8355046;28;20041;-66
2022/01/30 08:58:55;;;;;;;23.90;3.63;;;;;;;7.55;84.01;101998.81;8354648;28;20032;-66
2022/01/30 09:02:59;;;;;;;21.75;2.92;;;;;;;7.59;83.50;102000.38;8350357;28;20428;-66
2022/01/30 09:06:59;;;;;;;35.58;3.72;;;;;;;7.58;83.75;101995.06;8348547;28;20724;-66
2022/01/30 09:11:00;;;;;;;20.77;2.80;;;;;;;7.66;83.50;101993.69;8346853;28;20044;-65
2022/01/30 09:15:05;;;;;;;24.35;3.90;;;;;;;7.80;82.43;102004.56;8350783;28;20475;-65
2022/01/30 09:19:05;;;;;;;24.20;3.80;;;;;;;7.91;81.61;102007.53;8337445;28;20509;-65
2022/01/30 09:23:06;;;;;;;15.80;3.05;;;;;;;7.98;81.61;102008.91;8326567;28;20609;-65
2022/01/30 09:27:08;;;;;;;25.83;4.28;;;;;;;7.98;81.95;102014.28;8339392;28;20454;-65
2022/01/30 09:31:08;;;;;;;29.52;2.88;;;;;;;7.96;81.16;102021.56;8333335;28;20041;-65
2022/01/30 09:35:09;;;;;;;26.33;3.40;;;;;;;7.95;81.31;102025.22;8337384;28;20134;-65
2022/01/30 09:39:10;;;;;;;17.73;3.72;;;;;;;8.04;81.20;102024.72;8345798;28;20041;-65
2022/01/30 09:43:11;;;;;;;27.13;4.05;;;;;;;8.13;80.62;102022.44;8346551;28;20056;-65
2022/01/30 09:47:14;;;;;;;28.02;3.50;;;;;;;8.11;80.64;102018.97;8341706;28;20182;-65
2022/01/30 09:51:15;;;;;;;19.23;3.67;;;;;;;8.06;81.71;102012.00;8344593;28;20527;-65
2022/01/30 09:55:15;;;;;;;28.98;3.72;;;;;;;8.20;80.36;102005.81;8336292;28;20139;-65
2022/01/30 09:59:17;;;;;;;18.95;3.22;;;;;;;8.53;79.45;102006.56;8330982;28;20079;-65
2022/01/30 10:03:22;;;;;;;24.90;3.83;;;;;;;8.79;78.28;101997.81;8330156;28;20809;-65
2022/01/30 10:07:39;;;;;;;24.80;4.07;;;;;;;8.85;77.04;101993.84;8327265;28;20099;-65
2022/01/30 10:12:00;;;;;;;26.38;4.00;;;;;;;9.74;75.29;101989.91;8324854;28;20139;-65
2022/01/30 10:16:04;;;;;;;26.60;3.30;;;;;;;11.20;69.52;101998.75;8324762;28;20532;-65
2022/01/30 10:20:13;;;;;;;17.90;2.93;;;;;;;12.27;67.58;101990.88;8315246;28;20037;-65
2022/01/30 10:24:24;;;;;;;19.10;3.53;;;;;;;11.23;68.34;101992.28;8334763;28;20041;-65
2022/01/30 10:28:31;;;;;;;29.33;4.35;;;;;;;10.21;72.06;101999.47;8316885;28;20049;-65
2022/01/30 10:32:32;;;;;;;27.70;4.00;;;;;;;10.09;71.66;102001.13;8345976;28;20536;-65
2022/01/30 10:36:33;;;;;;;20.13;3.08;;;;;;;9.75;72.39;101994.34;8319100;28;20037;-65
2022/01/30 10:40:38;;;;;;;24.23;3.60;;;;;;;11.15;69.58;101991.94;8323592;28;20068;-65
2022/01/30 10:44:47;;;;;;;32.83;4.03;;;;;;;12.27;64.92;101987.28;8328840;28;20051;-65
2022/01/30 10:48:54;;;;;;;24.42;3.90;;;;;;;12.18;64.07;101993.38;8342706;28;20064;-65
2022/01/30 10:52:59;;;;;;;22.95;3.75;;;;;;;12.10;66.01;101987.69;8324893;28;20132;-65
2022/01/30 10:57:05;;;;;;;23.88;3.75;;;;;;;11.16;66.19;101991.84;8337976;28;20056;-65
2022/01/30 11:01:06;;;;;;;22.27;4.10;;;;;;;12.22;64.99;101975.91;8355161;28;20045;-65
2022/01/30 11:05:11;;;;;;;28.13;3.50;;;;;;;13.28;61.04;101982.94;8330720;28;20052;-65
2022/01/30 11:09:17;;;;;;;29.98;3.90;;;;;;;11.17;64.91;101977.34;8344086;28;20044;-65
2022/01/30 11:13:31;;;;;;;22.85;3.70;;;;;;;10.40;68.55;101979.16;8345153;28;20039;-65
2022/01/30 11:17:32;;;;;;;29.80;3.83;;;;;;;10.21;68.80;101981.38;8340438;28;20348;-65
2022/01/30 11:21:32;;;;;;;35.38;3.80;;;;;;;9.89;68.58;101977.22;8339337;28;20048;-65
2022/01/30 11:25:35;;;;;;;29.63;3.80;;;;;;;9.77;68.39;101978.03;8324096;28;20062;-65
2022/01/30 11:29:37;;;;;;;22.33;4.47;;;;;;;9.44;69.71;101977.50;8318020;28;20048;-65
2022/01/30 11:33:37;;;;;;;22.33;3.60;;;;;;;9.39;71.21;101977.78;8327874;28;20490;-65
2022/01/30 11:37:39;;;;;;;18.77;3.83;;;;;;;9.99;71.50;101973.81;8318254;28;20054;-65
2022/01/30 11:41:39;;;;;;;21.88;4.00;;;;;;;11.44;66.12;101961.81;8335127;28;20041;-65
2022/01/30 11:45:40;;;;;;;32.05;4.63;;;;;;;11.17;65.76;101954.81;8329503;28;20211;-65
2022/01/30 11:49:48;;;;;;;23.92;4.40;;;;;;;11.42;65.75;101950.25;8315888;28;20050;-66
2022/01/30 11:53:49;;;;;;;33.58;4.57;;;;;;;11.90;62.21;101941.22;8343953;28;20052;-66
2022/01/30 11:57:49;;;;;;;31.77;4.10;;;;;;;11.33;63.56;101950.91;8349748;28;20065;-66
2022/01/30 12:01:49;;;;;;;28.10;4.28;;;;;;;11.18;63.80;101940.28;8337318;28;20527;-65
2022/01/30 12:05:51;;;;;;;32.97;5.80;;;;;;;10.35;66.32;101951.59;8342264;28;20045;-65
2022/01/30 12:18:44;;;;;;;23.92;3.50;;;;;;;12.21;61.07;101926.25;8394325;27;21089;-64
2022/01/30 12:22:45;;;;;;;37.88;4.72;;;;;;;11.75;60.67;101936.09;8334603;28;20045;-65
2022/01/30 12:26:50;;;;;;;27.60;3.92;;;;;;;10.64;63.54;101927.97;8367467;28;20536;-65
2022/01/30 12:30:52;;;;;;;29.70;4.80;;;;;;;11.50;61.96;101920.72;8332791;28;20277;-65
2022/01/30 12:39:16;;;;;;;32.08;5.05;;;;;;;10.76;62.11;101905.44;8340578;27;20388;-64
2022/01/30 12:43:25;;;;;;;34.13;4.97;;;;;;;10.32;63.70;101922.06;8335875;28;20048;-64
2022/01/30 12:47:26;;;;;;;32.30;4.53;;;;;;;9.81;64.53;101910.19;8323276;28;20509;-64
2022/01/30 12:51:27;;;;;;;39.15;4.93;;;;;;;9.47;66.02;101920.59;8326101;28;20535;-64
2022/01/30 12:55:29;;;;;;;33.20;3.67;;;;;;;9.43;65.57;101919.09;8333658;28;20704;-64
2022/01/30 12:59:29;;;;;;;28.13;4.35;;;;;;;9.35;66.05;101918.69;8327818;28;20052;-64
2022/01/30 13:03:30;;;;;;;25.58;3.88;;;;;;;9.19;67.28;101909.84;8344523;28;20041;-64
2022/01/30 13:07:30;;;;;;;29.17;4.38;;;;;;;9.19;68.00;101912.56;8326380;28;20029;-64
2022/01/30 13:11:31;;;;;;;24.15;3.50;;;;;;;9.12;70.20;101913.91;8321645;28;20074;-64
2022/01/30 13:15:38;;;;;;;27.65;4.43;;;;;;;9.16;67.74;101899.25;8322373;28;20045;-64
2022/01/30 13:19:42;;;;;;;26.00;4.75;;;;;;;8.91;66.35;101909.88;8321880;28;20046;-64
2022/01/30 13:23:46;;;;;;;39.28;4.70;;;;;;;8.80;66.22;101906.97;8325572;28;20045;-64
2022/01/30 13:27:49;;;;;;;21.42;2.90;;;;;;;9.02;66.34;101915.44;8316730;28;20041;-64
2022/01/30 13:31:52;;;;;;;33.30;4.20;;;;;;;9.15;65.16;101905.63;8321387;28;20094;-64
2022/01/30 13:35:52;;;;;;;30.10;4.38;;;;;;;9.29;64.46;101898.38;8324920;28;20041;-64
2022/01/30 13:44:11;;;;;;;31.60;3.75;;;;;;;9.57;65.40;101897.44;8333042;27;20747;-64
2022/01/30 13:48:16;;;;;;;26.98;3.72;;;;;;;9.82;64.02;101881.34;8329811;28;20181;-64
2022/01/30 13:52:19;;;;;;;24.38;4.05;;;;;;;9.89;63.17;101877.28;8329303;28;20057;-64
2022/01/30 13:56:19;;;;;;;21.88;4.05;;;;;;;10.05;63.23;101864.47;8329074;28;20147;-64
2022/01/30 14:00:20;;;;;;;29.35;3.58;;;;;;;10.04;63.94;101878.94;8309878;28;20050;-64
2022/01/30 14:04:22;;;;;;;19.08;3.67;;;;;;;10.06;63.30;101876.97;8324546;28;20157;-64
2022/01/30 14:08:25;;;;;;;22.23;3.53;;;;;;;9.69;64.51;101873.19;8332171;28;20042;-64
2022/01/30 14:12:37;;;;;;;26.58;3.67;;;;;;;9.37;65.01;101869.03;8347776;28;20049;-64
2022/01/30 14:16:43;;;;;;;24.83;3.63;;;;;;;9.37;65.66;101860.09;8331576;28;20041;-64
2022/01/30 14:20:46;;;;;;;32.20;4.68;;;;;;;9.25;66.55;101861.78;8319780;28;20153;-64
2022/01/30 14:24:51;;;;;;;33.88;4.65;;;;;;;9.35;66.39;101853.91;8332750;28;20041;-64
2022/01/30 14:29:16;;;;;;;25.63;3.90;;;;;;;9.51;66.75;101841.13;8335056;28;20515;-64
2022/01/30 14:33:17;;;;;;;31.40;3.97;;;;;;;9.52;64.09;101845.59;8328309;28;20111;-64
2022/01/30 14:37:21;;;;;;;35.63;4.10;;;;;;;9.30;63.67;101853.38;8330815;28;20036;-64
2022/01/30 14:41:21;;;;;;;17.58;4.03;;;;;;;9.21;64.24;101848.56;8330645;28;20145;-64
2022/01/30 14:45:22;;;;;;;37.03;4.40;;;;;;;9.20;64.97;101844.13;8325559;28;20049;-64
2022/01/30 14:49:22;;;;;;;22.83;3.25;;;;;;;9.32;64.10;101841.50;8330439;28;20420;-64
2022/01/30 14:53:23;;;;;;;19.30;3.67;;;;;;;9.42;66.13;101820.16;8312988;28;20046;-64
2022/01/30 14:57:24;;;;;;;24.77;3.67;;;;;;;9.30;65.39;101839.88;8281622;28;20041;-64
2022/01/30 15:01:26;;;;;;;23.05;3.30;;;;;;;9.21;66.38;101835.09;8308338;28;20049;-64
2022/01/30 15:05:26;;;;;;;28.23;4.18;;;;;;;9.20;66.46;101825.22;8314941;28;20133;-64
2022/01/30 15:09:28;;;;;;;27.02;5.03;;;;;;;9.14;67.81;101817.53;8327303;28;20049;-64
2022/01/30 15:13:28;;;;;;;27.75;4.25;;;;;;;9.13;68.48;101819.41;8311738;28;20049;-64
2022/01/30 15:17:33;;;;;;;24.92;3.42;;;;;;;9.02;68.52;101813.81;8305521;28;20056;-64
2022/01/30 15:21:33;;;;;;;33.05;3.80;;;;;;;8.93;68.46;101810.81;8310326;28;20357;-64
2022/01/30 15:25:34;;;;;;;26.17;4.25;;;;;;;8.84;68.58;101822.22;8319450;28;20042;-64
2022/01/30 15:29:35;;;;;;;25.67;3.55;;;;;;;8.84;68.30;101819.53;8305278;28;20439;-64
2022/01/30 15:33:35;;;;;;;18.27;3.43;;;;;;;8.84;68.79;101811.44;8304739;28;20129;-64
2022/01/30 15:37:36;;;;;;;26.52;4.00;;;;;;;8.74;69.33;101811.16;8314798;28;20287;-64
2022/01/30 15:41:37;;;;;;;28.63;3.78;;;;;;;8.60;70.59;101802.22;8297091;28;20034;-64
2022/01/30 15:49:58;;;;;;;23.30;4.07;;;;;;;8.26;71.04;101791.81;8301259;28;20552;-64
2022/01/30 15:54:00;;;;;;;33.17;3.20;;;;;;;8.03;72.11;101785.94;8317959;28;20421;-64
2022/01/30 15:58:00;;;;;;;32.47;4.72;;;;;;;7.88;72.60;101781.53;8325305;28;20037;-64
2022/01/30 16:02:00;;;;;;;25.00;4.13;;;;;;;7.63;74.38;101780.38;8308936;28;20046;-64
2022/01/30 16:06:02;;;;;;;18.40;4.68;;;;;;;7.38;76.13;101780.09;8318133;28;20044;-64
2022/01/30 16:10:09;;;;;;;29.30;4.18;;;;;;;7.43;73.17;101773.50;8324208;28;20041;-64
2022/01/30 16:15:42;;;;;;;22.50;4.75;;;;;;;7.51;72.14;101776.56;8304379;28;20485;-64
2022/01/30 16:18:31;;;;;;;27.25;6.60;;;;;;;7.62;70.83;101768.75;8293603;28;20392;-65
2022/01/30 16:22:31;;;;;;;25.13;4.25;;;;;;;7.58;71.07;101758.25;8320932;28;20376;-65
2022/01/30 16:26:32;;;;;;;19.63;5.28;;;;;;;7.49;71.65;101751.59;8322871;28;20082;-65
2022/01/30 16:30:34;;;;;;;25.38;3.88;;;;;;;7.40;71.44;101746.75;8322816;28;20123;-65
2022/01/30 16:34:35;;;;;;;22.42;3.55;;;;;;;7.23;72.85;101730.75;8321272;28;20041;-65
2022/01/30 16:38:35;;;;;;;26.02;4.65;;;;;;;7.21;72.42;101740.75;8321532;28;20037;-65
2022/01/30 16:42:36;;;;;;;28.08;3.67;;;;;;;7.12;73.69;101732.31;8322632;28;20353;-65
2022/01/30 16:47:03;;;;;;;23.70;3.20;;;;;;;6.92;74.50;101728.09;8322100;28;20091;-65
2022/01/30 16:50:57;;;;;;;26.83;3.35;;;;;;;6.54;75.82;101721.34;8321911;28;20048;-65
2022/01/30 16:54:57;;;;;;;17.88;3.15;;;;;;;6.31;76.35;101713.69;8321984;28;20067;-65
2022/01/30 16:58:58;;;;;;;37.00;6.07;;;;;;;6.25;77.43;101718.53;8322063;28;20033;-65
2022/01/30 17:02:58;;;;;;;32.95;5.13;;;;;;;6.46;77.84;101710.16;8322223;28;20040;-65
2022/01/30 17:06:58;;;;;;;21.15;4.50;;;;;;;6.51;78.02;101704.53;8321343;28;20056;-65
2022/01/30 17:11:04;;;;;;;31.50;6.90;;;;;;;6.31;79.68;101694.88;8321853;28;20033;-65
2022/01/30 17:15:06;;;;;;;30.60;6.38;;;;;;;6.22;81.25;101687.34;8321306;28;20053;-65
2022/01/30 17:19:06;;;;;;;24.73;5.97;;;;;;;6.24;79.61;101674.72;8321415;28;20099;-65
2022/01/30 17:23:07;;;;;;;22.20;4.95;;;;;;;6.37;79.22;101674.91;8321693;28;20041;-65
2022/01/30 17:27:08;;;;;;;25.35;7.40;;;;;;;6.57;78.95;101667.44;8320019;28;20049;-64
2022/01/30 17:31:09;;;;;;;23.55;5.97;;;;;;;6.53;78.10;101665.91;8321180;28;20084;-64
2022/01/30 17:35:09;;;;;;;25.08;4.50;;;;;;;6.69;77.47;101656.00;8321135;28;20091;-64
2022/01/30 17:39:10;;;;;;;30.92;5.97;;;;;;;6.69;77.22;101656.00;8321538;28;20098;-64
2022/01/30 17:43:10;;;;;;;17.80;5.03;;;;;;;6.54;77.60;101662.25;8320956;28;20054;-64
2022/01/30 17:47:11;;;;;;;25.02;6.20;;;;;;;6.55;78.32;101653.22;8320773;28;20208;-63
2022/01/30 17:51:11;;;;;;;44.60;7.25;;;;;;;6.63;77.94;101650.09;8319355;28;20033;-64
2022/01/30 17:55:12;;;;;;;30.73;5.70;;;;;;;6.67;78.50;101652.53;8304301;28;20092;-64
2022/01/30 17:59:12;;;;;;;26.48;6.25;;;;;;;6.77;77.33;101642.97;8314472;28;20040;-64
2022/01/30 18:03:15;;;;;;;37.35;5.93;;;;;;;6.70;77.10;101641.59;8318085;28;20128;-64
2022/01/30 18:07:17;;;;;;;30.73;5.80;;;;;;;6.65;78.28;101630.25;8318498;28;20053;-64
2022/01/30 18:11:18;;;;;;;23.20;6.60;;;;;;;6.61;79.24;101631.38;8318864;28;20573;-64
2022/01/30 18:15:19;;;;;;;33.08;7.28;;;;;;;6.50;79.80;101624.91;8318058;28;20413;-64
2022/01/30 18:19:19;;;;;;;26.02;7.22;;;;;;;6.40;81.05;101621.84;8317476;28;20030;-64
2022/01/30 18:23:20;;;;;;;26.05;6.60;;;;;;;6.33;81.43;101625.84;8318617;28;20058;-64
2022/01/30 18:27:22;;;;;;;33.75;7.13;;;;;;;6.31;81.85;101621.53;8317541;28;20052;-64
2022/01/30 18:31:22;;;;;;;32.08;7.60;;;;;;;6.24;83.29;101620.13;8314058;28;20050;-64
2022/01/30 18:35:23;;;;;;;33.67;7.63;;;;;;;6.12;83.06;101605.59;8311302;28;20049;-64
2022/01/30 18:39:30;;;;;;;31.23;8.57;;;;;;;6.06;82.70;101605.91;8322588;28;20100;-64
2022/01/30 18:43:33;;;;;;;26.90;8.52;;;;;;;5.98;83.77;101592.09;8324245;28;20629;-64
2022/01/30 18:47:34;;;;;;;25.85;8.02;;;;;;;5.83;84.70;101587.56;8324215;28;20041;-64
2022/01/30 18:51:34;;;;;;;27.42;8.30;;;;;;;5.81;85.00;101581.38;8322593;28;20110;-64
2022/01/30 18:55:35;;;;;;;30.77;8.20;;;;;;;5.81;85.81;101567.94;8323943;28;20038;-64
2022/01/30 18:59:36;;;;;;;30.45;8.25;;;;;;;5.59;86.46;101578.13;8295515;28;20042;-64
2022/01/30 19:03:37;;;;;;;33.95;9.60;;;;;;;5.64;86.97;101573.38;8288776;28;20493;-64
2022/01/30 19:07:38;;;;;;;24.77;7.75;;;;;;;5.77;86.76;101577.13;8292373;28;20048;-64
2022/01/30 19:11:39;;;;;;;35.70;8.02;;;;;;;5.89;86.45;101571.97;8294458;28;20065;-64
2022/01/30 19:15:39;;;;;;;35.85;8.10;;;;;;;5.94;86.38;101558.28;8311028;28;20045;-64
2022/01/30 19:19:39;;;;;;;34.45;10.55;;;;;;;5.99;86.11;101545.50;8318317;28;20434;-64
2022/01/30 19:23:40;;;;;;;34.42;9.15;;;;;;;5.98;86.06;101543.78;8307371;28;20049;-64
2022/01/30 19:27:40;;;;;;;30.20;7.95;;;;;;;6.03;85.48;101545.22;8321124;28;20042;-64
2022/01/30 19:31:41;;;;;;;22.88;7.25;;;;;;;6.02;85.27;101548.00;8304869;28;20064;-64
2022/01/30 19:35:44;;;;;;;26.83;6.50;;;;;;;6.06;85.45;101535.28;8326261;28;20037;-63